createdAt,value
2023-01-29T00:02:02.020Z,87.46
2023-01-29T00:12:02.393Z,87.06
2023-01-29T00:22:02.762Z,87.39
2023-01-29T00:32:03.219Z,87.71
2023-01-29T00:42:03.380Z,88.21
2023-01-29T00:52:03.742Z,88.39
2023-01-29T01:02:04.016Z,88.76
2023-01-29T01:12:04.298Z,88.82
2023-01-29T01:22:04.603Z,88.42
2023-01-29T01:32:04.931Z,89.74
2023-01-29T01:42:05.142Z,89.57
2023-01-29T01:52:05.368Z,90.34
2023-01-29T02:02:05.649Z,89.81
2023-01-29T02:12:05.796Z,90.82
2023-01-29T02:22:05.925Z,90.84
2023-01-29T02:32:06.142Z,92.08
2023-01-29T02:42:07.369Z,92.91
2023-01-29T02:52:06.439Z,94.35
2023-01-29T03:02:06.655Z,91.42
2023-01-29T03:12:06.791Z,90.50
2023-01-29T03:22:06.941Z,91.09
2023-01-29T03:32:07.248Z,92.86
2023-01-29T03:42:07.360Z,91.77
2023-01-29T03:52:07.545Z,92.09
2023-01-29T04:02:07.704Z,94.18
2023-01-29T04:12:07.882Z,93.76
2023-01-29T04:22:08.078Z,93.88
2023-01-29T04:32:08.178Z,93.82
2023-01-29T04:42:08.380Z,92.87
2023-01-29T04:52:08.614Z,92.41
2023-01-29T05:02:08.835Z,92.48
2023-01-29T05:12:09.143Z,91.77
2023-01-29T05:22:09.313Z,92.10
2023-01-29T05:32:09.546Z,91.75
2023-01-29T05:42:09.683Z,92.13
2023-01-29T05:52:09.884Z,91.61
2023-01-29T06:02:10.145Z,92.04
2023-01-29T06:12:10.285Z,91.89
2023-01-29T06:22:10.497Z,91.40
2023-01-29T06:32:10.722Z,91.49
2023-01-29T06:42:10.889Z,88.45
2023-01-29T06:52:11.142Z,85.28
2023-01-29T07:02:11.365Z,84.13
2023-01-29T07:12:11.526Z,83.64
2023-01-29T07:32:12.041Z,82.28
2023-01-29T07:42:12.259Z,81.57
2023-01-29T07:52:12.538Z,81.75
2023-01-29T08:02:12.840Z,80.48
2023-01-29T08:12:13.099Z,80.09
2023-01-29T08:22:13.235Z,79.38
2023-01-29T08:32:13.433Z,79.25
2023-01-29T08:42:13.677Z,78.88
2023-01-29T08:52:13.897Z,78.89
2023-01-29T09:02:14.176Z,79.13
2023-01-29T09:12:14.291Z,77.80
2023-01-29T09:22:14.520Z,77.21
2023-01-29T09:32:19.781Z,76.44
2023-01-29T09:42:15.092Z,75.78
2023-01-29T09:52:15.400Z,75.88
2023-01-29T10:02:15.787Z,73.91
2023-01-29T10:12:15.976Z,72.67
2023-01-29T10:22:16.289Z,72.23
2023-01-29T10:32:16.697Z,70.41
2023-01-29T10:42:16.830Z,69.17
2023-01-29T10:52:17.170Z,68.12
2023-01-29T11:02:17.251Z,67.36
2023-01-29T11:12:17.464Z,67.73
2023-01-29T11:22:17.630Z,67.16
2023-01-29T11:32:17.816Z,66.92
2023-01-29T11:42:18.119Z,66.50
2023-01-29T12:02:18.422Z,64.34
2023-01-29T12:12:18.677Z,64.19
2023-01-29T12:22:19.006Z,63.73
2023-01-29T12:32:19.315Z,62.85
2023-01-29T12:42:19.154Z,62.28
2023-01-29T12:52:19.444Z,61.88
2023-01-29T13:02:19.420Z,61.61
2023-01-29T13:12:19.598Z,61.23
2023-01-29T13:22:19.690Z,60.33
2023-01-29T13:32:19.826Z,60.88
2023-01-29T13:42:22.021Z,60.64
2023-01-29T13:52:23.486Z,60.75
2023-01-29T14:02:20.437Z,61.52
2023-01-29T14:12:22.467Z,61.97
2023-01-29T14:22:20.777Z,62.34
2023-01-29T14:32:20.738Z,62.10
2023-01-29T14:42:21.022Z,62.10
2023-01-29T14:52:20.981Z,62.61
2023-01-29T15:02:23.171Z,62.57
2023-01-29T15:12:23.816Z,62.80
2023-01-29T15:22:21.419Z,62.84
2023-01-29T15:32:24.733Z,64.18
2023-01-29T15:42:21.919Z,64.53
2023-01-29T15:52:23.913Z,65.26
2023-01-29T16:02:22.394Z,65.43
2023-01-29T16:12:22.223Z,67.38
2023-01-29T16:22:24.508Z,69.11
2023-01-29T16:32:22.696Z,68.63
2023-01-29T16:52:22.973Z,68.68
2023-01-29T17:02:24.848Z,68.00
2023-01-29T17:12:25.241Z,68.01
2023-01-29T17:32:23.533Z,68.15
2023-01-29T17:42:23.728Z,70.51
2023-01-29T17:52:25.864Z,69.53
2023-01-29T18:02:28.685Z,69.33
2023-01-29T18:12:25.962Z,69.00
2023-01-29T18:22:24.079Z,69.69
2023-01-29T18:32:24.081Z,70.27
2023-01-29T18:42:24.184Z,71.10
2023-01-29T18:52:25.430Z,71.20
2023-01-29T19:02:24.332Z,71.15
2023-01-29T19:12:24.191Z,72.68
2023-01-29T19:22:24.052Z,71.74
2023-01-29T19:32:26.182Z,72.00
2023-01-29T19:42:24.393Z,72.43
2023-01-29T19:52:25.254Z,73.67
2023-01-29T20:02:24.533Z,72.06
2023-01-29T20:12:24.592Z,73.37
2023-01-29T20:22:24.574Z,75.26
2023-01-29T20:32:26.560Z,75.14
2023-01-29T20:42:26.576Z,74.45
2023-01-29T20:52:24.379Z,74.97
2023-01-29T21:02:25.586Z,74.54
2023-01-29T21:12:24.418Z,74.05
2023-01-29T21:22:24.467Z,74.39
2023-01-29T21:32:24.604Z,73.90
2023-01-29T21:42:24.712Z,73.71
2023-01-29T21:52:24.480Z,75.13
2023-01-29T22:12:24.581Z,76.66
2023-01-29T22:22:24.584Z,76.80
2023-01-29T22:32:24.667Z,78.17
2023-01-29T22:42:24.634Z,78.43
2023-01-29T22:52:24.617Z,78.36
2023-01-29T23:02:25.065Z,76.25
2023-01-29T23:12:24.680Z,76.78
2023-01-29T23:22:24.682Z,76.68
2023-01-29T23:32:24.728Z,78.03
2023-01-29T23:42:24.642Z,78.74
2023-01-29T23:52:24.652Z,77.88
